createdAt,value
2016-02-22T00:00:04.973Z,68.92
2016-02-22T00:01:04.992Z,68.82
2016-02-22T00:02:05.010Z,68.92
2016-02-22T00:03:05.043Z,69.11
2016-02-22T00:04:05.062Z,68.26
2016-02-22T00:05:05.081Z,68.35
2016-02-22T00:06:05.101Z,68.54
2016-02-22T00:07:05.136Z,68.16
2016-02-22T00:08:05.138Z,68.26
2016-02-22T00:09:05.157Z,68.82
2016-02-22T00:10:05.190Z,68.06
2016-02-22T00:11:05.193Z,68.63
2016-02-22T00:12:05.227Z,68.44
2016-02-22T00:13:05.245Z,68.63
2016-02-22T00:14:05.264Z,68.26
2016-02-22T00:15:05.297Z,68.35
2016-02-22T00:16:05.305Z,68.26
2016-02-22T00:17:05.324Z,67.97
2016-02-22T00:18:05.358Z,67.77
2016-02-22T00:19:05.376Z,67.97
2016-02-22T00:20:05.394Z,68.06
2016-02-22T00:21:05.412Z,67.87
2016-02-22T00:22:05.430Z,68.44
2016-02-22T00:23:05.465Z,68.35
2016-02-22T00:24:05.483Z,67.87
2016-02-22T00:25:05.501Z,68.35
2016-02-22T00:26:05.520Z,68.16
2016-02-22T00:27:05.554Z,68.44
2016-02-22T00:28:05.556Z,68.26
2016-02-22T00:29:05.590Z,68.16
2016-02-22T00:30:05.609Z,67.68
2016-02-22T00:31:05.627Z,67.77
2016-02-22T00:32:05.661Z,67.77
2016-02-22T00:33:05.664Z,68.06
2016-02-22T00:34:05.697Z,68.16
2016-02-22T00:35:05.715Z,67.87
2016-02-22T00:36:05.734Z,67.97
2016-02-22T00:37:05.877Z,67.77
2016-02-22T00:38:05.770Z,68.73
2016-02-22T00:39:05.805Z,67.58
2016-02-22T00:40:05.823Z,68.16
2016-02-22T00:41:05.841Z,67.97
2016-02-22T00:42:05.859Z,68.44
2016-02-22T00:43:05.878Z,68.63
2016-02-22T00:44:05.912Z,67.58
2016-02-22T00:45:05.930Z,68.54
2016-02-22T00:46:05.948Z,68.35
2016-02-22T00:47:05.967Z,68.54
2016-02-22T00:48:05.985Z,68.26
2016-02-22T00:49:06.019Z,67.97
2016-02-22T00:50:06.037Z,68.26
2016-02-22T00:51:06.056Z,67.97
2016-02-22T00:52:06.090Z,67.87
2016-02-22T00:53:06.092Z,67.97
2016-02-22T00:54:06.141Z,68.16
2016-02-22T00:55:06.144Z,67.58
2016-02-22T00:56:06.163Z,67.68
2016-02-22T00:57:06.181Z,68.16
2016-02-22T00:58:06.215Z,67.77
2016-02-22T00:59:06.233Z,67.68
2016-02-22T01:00:06.252Z,67.58
2016-02-22T01:01:06.270Z,67.87
2016-02-22T01:02:06.303Z,67.87
2016-02-22T01:03:06.307Z,67.87
2016-02-22T01:04:06.341Z,68.16
2016-02-22T01:05:06.359Z,67.87
2016-02-22T01:06:06.377Z,67.3
2016-02-22T01:07:06.412Z,67.3
2016-02-22T01:08:06.414Z,68.16
2016-02-22T01:09:06.448Z,68.06
2016-02-22T01:10:06.450Z,66.98
2016-02-22T01:11:06.500Z,68.12
2016-02-22T01:12:06.502Z,67.01
2016-02-22T01:13:06.521Z,67.3
2016-02-22T01:14:06.602Z,67.49
2016-02-22T01:15:06.573Z,67.46
2016-02-22T01:16:06.591Z,66.82
2016-02-22T01:17:06.610Z,67.46
2016-02-22T01:18:06.628Z,67.4
2016-02-22T01:19:06.662Z,67.11
2016-02-22T01:20:06.680Z,67.17
2016-02-22T01:21:06.699Z,66.78
2016-02-22T01:22:06.716Z,67.17
2016-02-22T01:23:06.735Z,67.27
2016-02-22T01:24:06.754Z,67.36
2016-02-22T01:25:06.787Z,67.4
2016-02-22T01:26:06.806Z,67.27
2016-02-22T01:27:06.824Z,67.3
2016-02-22T01:28:06.858Z,66.88
2016-02-22T01:29:06.860Z,66.88
2016-02-22T01:30:06.895Z,66.6
2016-02-22T01:31:06.913Z,66.72
2016-02-22T01:32:06.931Z,66.78
2016-02-22T01:33:06.965Z,66.5
2016-02-22T01:34:06.968Z,66.5
2016-02-22T01:35:07.001Z,66.98
2016-02-22T01:36:07.020Z,66.88
2016-02-22T01:37:07.039Z,66.5
2016-02-22T01:38:07.073Z,66.12
2016-02-22T01:39:07.091Z,66.78
2016-02-22T01:40:07.109Z,66.88
2016-02-22T01:41:07.175Z,66.41
2016-02-22T01:42:07.161Z,66.5
2016-02-22T01:43:07.164Z,66.5
2016-02-22T01:44:07.183Z,66.22
2016-02-22T01:45:07.200Z,66.12
2016-02-22T01:46:07.235Z,66.6
2016-02-22T01:47:07.284Z,66.6
2016-02-22T01:48:07.272Z,66.22
2016-02-22T01:49:07.305Z,66.41
2016-02-22T01:50:07.308Z,66.31
2016-02-22T01:51:07.342Z,66.12
2016-02-22T01:52:07.360Z,66.02
2016-02-22T01:53:07.379Z,65.74
2016-02-22T01:54:07.397Z,66.22
2016-02-22T01:55:07.430Z,65.64
2016-02-22T01:56:07.449Z,65.55
2016-02-22T01:57:07.468Z,65.74
2016-02-22T01:58:07.485Z,65.83
2016-02-22T01:59:07.504Z,65.74
2016-02-22T02:00:07.523Z,65.36
2016-02-22T02:01:07.556Z,65.55
2016-02-22T02:02:07.574Z,66.02
2016-02-22T02:03:07.593Z,65.64
2016-02-22T02:04:07.612Z,65.26
2016-02-22T02:05:07.629Z,65.07
2016-02-22T02:06:07.492Z,65.17
2016-02-22T02:07:07.682Z,64.69
2016-02-22T02:08:07.715Z,64.59
2016-02-22T02:09:07.718Z,64.88
2016-02-22T02:10:07.737Z,64.59
2016-02-22T02:11:07.755Z,64.88
2016-02-22T02:12:07.789Z,64.88
2016-02-22T02:13:07.808Z,64.88
2016-02-22T02:14:07.825Z,64.88
2016-02-22T02:15:07.844Z,64.59
2016-02-22T02:16:07.924Z,64.88
2016-02-22T02:17:07.896Z,64.4
2016-02-22T02:18:07.914Z,64.88
2016-02-22T02:19:07.948Z,64.59
2016-02-22T02:20:07.951Z,64.31
2016-02-22T02:21:07.969Z,64.21
2016-02-22T02:22:08.003Z,64.21
2016-02-22T02:23:08.021Z,64.21
2016-02-22T02:24:08.041Z,63.92
2016-02-22T02:25:08.058Z,64.02
2016-02-22T02:26:08.093Z,63.83
2016-02-22T02:27:08.142Z,63.92
2016-02-22T02:28:08.191Z,63.16
2016-02-22T02:29:08.179Z,63.73
2016-02-22T02:30:08.182Z,63.64
2016-02-22T02:31:08.246Z,63.92
2016-02-22T02:32:08.202Z,63.45
2016-02-22T02:33:08.283Z,63.35
2016-02-22T02:34:08.270Z,63.35
2016-02-22T02:35:08.273Z,63.16
2016-02-22T02:36:08.291Z,63.16
2016-02-22T02:37:08.340Z,62.78
2016-02-22T02:38:08.375Z,63.16
2016-02-22T02:39:08.409Z,63.07
2016-02-22T02:40:08.489Z,63.45
2016-02-22T02:41:08.461Z,63.16
2016-02-22T02:42:08.417Z,63.35
2016-02-22T02:43:08.434Z,63.45
2016-02-22T02:44:08.453Z,63.35
2016-02-22T02:45:08.486Z,63.16
2016-02-22T02:46:08.505Z,63.07
2016-02-22T02:47:08.524Z,63.07
2016-02-22T02:48:08.541Z,63.35
2016-02-22T02:49:08.560Z,63.16
2016-02-22T02:50:08.594Z,63.16
2016-02-22T02:51:08.690Z,62.88
2016-02-22T02:52:08.693Z,62.88
2016-02-22T02:53:08.696Z,62.97
2016-02-22T02:54:08.792Z,63.07
2016-02-22T02:55:08.810Z,63.16
2016-02-22T02:56:08.704Z,63.26
2016-02-22T02:57:08.754Z,63.04
2016-02-22T02:58:08.834Z,63.07
2016-02-22T02:59:08.790Z,62.97
2016-02-22T03:00:08.793Z,63.07
2016-02-22T03:01:08.811Z,62.88
2016-02-22T03:02:08.845Z,62.49
2016-02-22T03:03:08.863Z,62.78
2016-02-22T03:04:08.882Z,62.78
2016-02-22T03:05:08.948Z,62.88
2016-02-22T03:06:08.918Z,62.3
2016-02-22T03:07:08.953Z,62.88
2016-02-22T03:08:08.971Z,62.68
2016-02-22T03:09:08.989Z,62.59
2016-02-22T03:10:09.007Z,62.68
2016-02-22T03:11:09.026Z,62.65
2016-02-22T03:12:09.044Z,62.68
2016-02-22T03:13:09.078Z,62.88
2016-02-22T03:14:09.096Z,63.07
2016-02-22T03:15:09.115Z,62.88
2016-02-22T03:16:09.133Z,62.88
2016-02-22T03:17:09.150Z,62.68
2016-02-22T03:18:09.169Z,62.97
2016-02-22T03:19:09.204Z,62.94
2016-02-22T03:20:09.222Z,62.84
2016-02-22T03:21:09.240Z,62.49
2016-02-22T03:22:09.259Z,62.65
2016-02-22T03:23:09.277Z,62.56
2016-02-22T03:24:09.310Z,62.4
2016-02-22T03:25:09.313Z,62.46
2016-02-22T03:26:09.347Z,62.65
2016-02-22T03:27:09.366Z,62.84
2016-02-22T03:28:09.399Z,62.56
2016-02-22T03:29:09.402Z,62.4
2016-02-22T03:30:09.421Z,62.65
2016-02-22T03:31:09.455Z,62.37
2016-02-22T03:32:09.473Z,62.46
2016-02-22T03:33:09.491Z,62.49
2016-02-22T03:34:09.510Z,62.56
2016-02-22T03:35:09.528Z,62.37
2016-02-22T03:36:09.593Z,62.56
2016-02-22T03:37:09.579Z,62.46
2016-02-22T03:38:09.582Z,62.65
2016-02-22T03:39:09.648Z,62.75
2016-02-22T03:40:09.635Z,62.94
2016-02-22T03:41:09.669Z,62.37
2016-02-22T03:42:09.672Z,61.8
2016-02-22T03:43:09.706Z,62.08
2016-02-22T03:44:09.723Z,61.99
2016-02-22T03:45:09.726Z,62.08
2016-02-22T03:46:09.776Z,61.51
2016-02-22T03:47:09.779Z,61.99
2016-02-22T03:48:09.813Z,61.99
2016-02-22T03:49:09.816Z,62.18
2016-02-22T03:50:09.849Z,61.6
2016-02-22T03:51:09.867Z,61.7
2016-02-22T03:52:09.886Z,61.99
2016-02-22T03:53:09.920Z,61.8
2016-02-22T03:54:09.938Z,61.51
2016-02-22T03:55:09.941Z,61.99
2016-02-22T03:56:09.960Z,61.8
2016-02-22T03:57:09.994Z,61.89
2016-02-22T03:58:10.011Z,61.8
2016-02-22T03:59:10.030Z,61.8
2016-02-22T04:00:10.049Z,61.8
2016-02-22T04:01:10.082Z,62.08
2016-02-22T04:02:10.101Z,61.6
2016-02-22T04:03:10.119Z,61.22
2016-02-22T04:04:10.137Z,61.51
2016-02-22T04:05:10.155Z,61.41
2016-02-22T04:06:10.190Z,61.32
2016-02-22T04:07:10.223Z,61.89
2016-02-22T04:08:10.226Z,61.41
2016-02-22T04:09:10.245Z,61.6
2016-02-22T04:10:10.262Z,61.6
2016-02-22T04:11:10.281Z,61.8
2016-02-22T04:12:10.299Z,61.51
2016-02-22T04:13:10.334Z,61.8
2016-02-22T04:14:10.351Z,61.7
2016-02-22T04:15:10.370Z,61.7
2016-02-22T04:16:10.389Z,61.51
2016-02-22T04:17:10.406Z,61.41
2016-02-22T04:18:10.425Z,61.41
2016-02-22T04:19:10.442Z,61.7
2016-02-22T04:20:10.461Z,61.51
2016-02-22T04:21:10.495Z,61.41
2016-02-22T04:22:10.513Z,61.8
2016-02-22T04:23:10.532Z,61.8
2016-02-22T04:24:10.550Z,61.8
2016-02-22T04:25:10.568Z,61.41
2016-02-22T04:26:10.586Z,61.51
2016-02-22T04:27:10.621Z,61.7
2016-02-22T04:28:10.638Z,61.04
2016-02-22T04:29:10.657Z,61.13
2016-02-22T04:30:10.691Z,61.22
2016-02-22T04:31:10.694Z,61.13
2016-02-22T04:32:10.712Z,61.41
2016-02-22T04:33:10.730Z,61.51
2016-02-22T04:34:10.765Z,61.13
2016-02-22T04:35:10.782Z,61.32
2016-02-22T04:36:10.801Z,61.41
2016-02-22T04:37:10.835Z,61.8
2016-02-22T04:38:10.854Z,61.51
2016-02-22T04:39:10.871Z,61.41
2016-02-22T04:40:10.890Z,61.7
2016-02-22T04:41:10.908Z,61.8
2016-02-22T04:42:10.927Z,61.41
2016-02-22T04:43:10.961Z,61.6
2016-02-22T04:44:10.963Z,61.51
2016-02-22T04:45:10.998Z,61.51
2016-02-22T04:46:11.015Z,61.41
2016-02-22T04:47:11.018Z,61.7
2016-02-22T04:48:11.067Z,61.8
2016-02-22T04:49:11.071Z,61.8
2016-02-22T04:50:11.105Z,61.7
2016-02-22T04:51:11.122Z,61.7
2016-02-22T04:52:11.141Z,61.6
2016-02-22T04:53:11.158Z,61.41
2016-02-22T04:54:11.178Z,61.51
2016-02-22T04:55:11.211Z,61.89
2016-02-22T04:56:11.214Z,61.51
2016-02-22T04:57:11.233Z,61.51
2016-02-22T04:58:11.266Z,61.6
2016-02-22T04:59:11.269Z,61.7
2016-02-22T05:00:11.302Z,61.8
2016-02-22T05:01:11.306Z,61.7
2016-02-22T05:02:11.340Z,61.6
2016-02-22T05:03:11.358Z,61.51
2016-02-22T05:04:11.377Z,61.6
2016-02-22T05:05:11.428Z,61.99
2016-02-22T05:06:11.415Z,61.6
2016-02-22T05:07:11.434Z,61.89
2016-02-22T05:08:11.467Z,61.8
2016-02-22T05:09:11.486Z,61.8
2016-02-22T05:10:11.504Z,61.7
2016-02-22T05:11:11.522Z,61.7
2016-02-22T05:12:11.556Z,61.8
2016-02-22T05:13:11.575Z,61.8
2016-02-22T05:14:11.593Z,61.8
2016-02-22T05:15:11.611Z,61.99
2016-02-22T05:16:11.645Z,61.8
2016-02-22T05:17:11.648Z,61.51
2016-02-22T05:18:11.666Z,61.89
2016-02-22T05:19:11.699Z,61.89
2016-02-22T05:20:11.718Z,61.99
2016-02-22T05:21:11.737Z,61.99
2016-02-22T05:22:11.739Z,61.7
2016-02-22T05:23:11.773Z,61.7
2016-02-22T05:24:11.792Z,61.7
2016-02-22T05:25:11.810Z,62.08
2016-02-22T05:26:11.827Z,62.08
2016-02-22T05:27:11.862Z,62.08
2016-02-22T05:28:11.881Z,61.99
2016-02-22T05:29:11.899Z,62.08
2016-02-22T05:30:11.917Z,62.08
2016-02-22T05:31:11.935Z,61.99
2016-02-22T05:32:11.954Z,61.99
2016-02-22T05:33:11.987Z,62.08
2016-02-22T05:34:11.990Z,61.99
2016-02-22T05:35:12.024Z,62.37
2016-02-22T05:36:12.043Z,62.56
2016-02-22T05:37:12.061Z,62.65
2016-02-22T05:38:12.079Z,62.75
2016-02-22T05:39:12.112Z,62.56
2016-02-22T05:40:12.147Z,62.56
2016-02-22T05:41:12.134Z,62.65
2016-02-22T05:42:12.168Z,62.46
2016-02-22T05:43:12.186Z,62.56
2016-02-22T05:44:12.205Z,62.84
2016-02-22T05:45:12.239Z,62.84
2016-02-22T05:46:12.241Z,62.56
2016-02-22T05:47:12.259Z,62.37
2016-02-22T05:48:12.294Z,62.56
2016-02-22T05:49:12.312Z,62.84
2016-02-22T05:50:12.330Z,62.65
2016-02-22T05:51:12.364Z,62.56
2016-02-22T05:52:12.367Z,62.75
2016-02-22T05:53:12.385Z,62.84
2016-02-22T05:54:12.419Z,62.65
2016-02-22T05:55:12.438Z,62.65
2016-02-22T05:56:12.456Z,62.65
2016-02-22T05:57:12.474Z,62.75
2016-02-22T05:58:12.507Z,62.75
2016-02-22T05:59:12.511Z,63.04
2016-02-22T06:00:12.544Z,63.13
2016-02-22T06:01:12.547Z,62.84
2016-02-22T06:02:12.581Z,62.65
2016-02-22T06:03:12.600Z,62.75
2016-02-22T06:04:12.618Z,62.75
2016-02-22T06:05:12.651Z,62.46
2016-02-22T06:06:12.655Z,62.65
2016-02-22T06:07:12.688Z,62.84
2016-02-22T06:08:12.706Z,62.75
2016-02-22T06:09:12.736Z,63.04
2016-02-22T06:10:12.743Z,62.56
2016-02-22T06:11:12.732Z,62.65
2016-02-22T06:12:12.738Z,62.65
2016-02-22T06:13:12.744Z,62.75
2016-02-22T06:14:12.767Z,62.94
2016-02-22T06:15:12.781Z,62.94
2016-02-22T06:16:12.795Z,62.75
2016-02-22T06:17:12.809Z,62.84
2016-02-22T06:18:12.806Z,62.75
2016-02-22T06:19:12.837Z,62.56
2016-02-22T06:20:12.854Z,63
2016-02-22T06:21:12.871Z,62.84
2016-02-22T06:22:12.902Z,62.46
2016-02-22T06:23:12.920Z,63.04
2016-02-22T06:24:12.953Z,62.62
2016-02-22T06:25:12.954Z,63.04
2016-02-22T06:26:12.972Z,62.56
2016-02-22T06:27:12.989Z,62.72
2016-02-22T06:28:13.007Z,62.84
2016-02-22T06:29:13.024Z,62.81
2016-02-22T06:30:13.058Z,63.04
2016-02-22T06:31:13.123Z,62.65
2016-02-22T06:32:13.078Z,62.65
2016-02-22T06:33:13.112Z,62.84
2016-02-22T06:34:13.146Z,62.52
2016-02-22T06:35:13.148Z,62.75
2016-02-22T06:36:13.182Z,62.84
2016-02-22T06:37:13.185Z,62.62
2016-02-22T06:38:13.218Z,62.84
2016-02-22T06:39:13.237Z,62.72
2016-02-22T06:40:13.256Z,62.72
2016-02-22T06:41:13.274Z,62.62
2016-02-22T06:42:13.307Z,62.75
2016-02-22T06:43:13.325Z,62.84
2016-02-22T06:44:13.345Z,62.65
2016-02-22T06:45:13.378Z,62.84
2016-02-22T06:46:13.381Z,63.04
2016-02-22T06:47:13.400Z,63.1
2016-02-22T06:48:13.418Z,63.04
2016-02-22T06:49:13.436Z,62.65
2016-02-22T06:50:13.453Z,62.65
2016-02-22T06:51:13.472Z,62.65
2016-02-22T06:52:13.507Z,62.84
2016-02-22T06:53:13.525Z,62.65
2016-02-22T06:54:13.543Z,62.56
2016-02-22T06:55:13.561Z,62.18
2016-02-22T06:56:13.595Z,62.65
2016-02-22T06:57:13.597Z,62.37
2016-02-22T06:58:13.616Z,62.75
2016-02-22T06:59:13.650Z,62.84
2016-02-22T07:00:13.653Z,62.65
2016-02-22T07:01:13.687Z,62.94
2016-02-22T07:02:13.705Z,62.94
2016-02-22T07:03:13.724Z,62.65
2016-02-22T07:04:13.757Z,62.56
2016-02-22T07:05:13.760Z,62.56
2016-02-22T07:06:13.794Z,62.46
2016-02-22T07:07:13.797Z,62.46
2016-02-22T07:08:13.831Z,62.65
2016-02-22T07:09:13.865Z,62.84
2016-02-22T07:10:13.867Z,62.75
2016-02-22T07:11:13.885Z,62.65
2016-02-22T07:12:13.904Z,62.65
2016-02-22T07:13:13.937Z,62.75
2016-02-22T07:14:13.956Z,62.75
2016-02-22T07:15:13.975Z,62.27
2016-02-22T07:16:13.993Z,62.46
2016-02-22T07:17:14.011Z,62.65
2016-02-22T07:18:14.061Z,62.94
2016-02-22T07:19:14.048Z,62.84
2016-02-22T07:20:14.081Z,62.56
2016-02-22T07:21:14.084Z,62.56
2016-02-22T07:22:14.118Z,62.56
2016-02-22T07:23:14.137Z,62.65
2016-02-22T07:24:14.155Z,62.84
2016-02-22T07:25:14.172Z,62.56
2016-02-22T07:26:14.208Z,62.37
2016-02-22T07:27:14.210Z,62.37
2016-02-22T07:28:14.244Z,62.65
2016-02-22T07:29:14.262Z,62.46
2016-02-22T07:30:14.281Z,62.37
2016-02-22T07:31:14.299Z,62.46
2016-02-22T07:32:14.316Z,62.65
2016-02-22T07:33:14.352Z,62.56
2016-02-22T07:34:14.369Z,62.65
2016-02-22T07:35:14.388Z,62.56
2016-02-22T07:36:14.406Z,62.84
2016-02-22T07:37:14.424Z,62.56
2016-02-22T07:38:14.443Z,62.65
2016-02-22T07:39:14.460Z,62.84
2016-02-22T07:40:14.479Z,62.65
2016-02-22T07:41:14.513Z,62.46
2016-02-22T07:42:14.532Z,62.56
2016-02-22T07:43:14.550Z,62.37
2016-02-22T07:44:14.568Z,62.94
2016-02-22T07:45:14.602Z,61.8
2016-02-22T07:46:14.604Z,62.08
2016-02-22T07:47:14.623Z,62.27
2016-02-22T07:48:14.657Z,61.99
2016-02-22T07:49:14.659Z,62.08
2016-02-22T07:50:14.694Z,62.94
2016-02-22T07:51:14.712Z,62.46
2016-02-22T07:52:14.731Z,62.37
2016-02-22T07:53:14.748Z,61.99
2016-02-22T07:54:14.783Z,62.27
2016-02-22T07:55:14.786Z,62.08
2016-02-22T07:56:14.803Z,61.99
2016-02-22T07:57:14.838Z,61.99
2016-02-22T07:58:14.856Z,61.89
2016-02-22T07:59:14.874Z,61.8
2016-02-22T08:00:14.908Z,61.8
2016-02-22T08:01:14.911Z,61.73
2016-02-22T08:02:14.930Z,61.8
2016-02-22T08:03:14.979Z,61.8
2016-02-22T08:04:14.981Z,61.8
2016-02-22T08:05:15.000Z,61.8
2016-02-22T08:06:15.018Z,61.73
2016-02-22T08:07:15.035Z,61.92
2016-02-22T08:08:15.071Z,62.02
2016-02-22T08:09:15.089Z,62.02
2016-02-22T08:10:15.107Z,61.63
2016-02-22T08:11:15.125Z,61.83
2016-02-22T08:12:15.144Z,61.54
2016-02-22T08:13:15.162Z,61.6
2016-02-22T08:14:15.179Z,61.63
2016-02-22T08:15:15.214Z,61.83
2016-02-22T08:16:15.232Z,61.63
2016-02-22T08:17:15.251Z,61.54
2016-02-22T08:18:15.269Z,61.92
2016-02-22T08:19:15.287Z,61.44
2016-02-22T08:20:15.306Z,61.35
2016-02-22T08:21:15.340Z,61.25
2016-02-22T08:22:15.342Z,61.07
2016-02-22T08:23:15.376Z,61.25
2016-02-22T08:24:15.395Z,61.63
2016-02-22T08:25:15.413Z,61.54
2016-02-22T08:26:15.447Z,61.54
2016-02-22T08:27:15.449Z,61.54
2016-02-22T08:28:15.483Z,61.35
2016-02-22T08:29:15.502Z,61.07
2016-02-22T08:30:15.520Z,61.25
2016-02-22T08:31:15.538Z,61.07
2016-02-22T08:32:15.557Z,61.07
2016-02-22T08:33:15.575Z,61.35
2016-02-22T08:34:15.608Z,61.25
2016-02-22T08:35:15.627Z,61.35
2016-02-22T08:36:15.661Z,61.25
2016-02-22T08:37:15.663Z,61.16
2016-02-22T08:38:15.683Z,61.44
2016-02-22T08:39:15.701Z,61.44
2016-02-22T08:40:15.719Z,61.25
2016-02-22T08:41:15.738Z,61.35
2016-02-22T08:42:15.771Z,61.44
2016-02-22T08:43:15.790Z,61.16
2016-02-22T08:44:15.824Z,61.35
2016-02-22T08:45:15.826Z,60.87
2016-02-22T08:46:15.876Z,60.97
2016-02-22T08:47:15.879Z,60.78
2016-02-22T08:48:15.896Z,60.78
2016-02-22T08:49:15.915Z,60.68
2016-02-22T08:50:15.933Z,60.97
2016-02-22T08:51:15.968Z,60.97
2016-02-22T08:52:15.986Z,61.07
2016-02-22T08:53:16.003Z,60.97
2016-02-22T08:54:16.022Z,60.68
2016-02-22T08:55:16.039Z,61.07
2016-02-22T08:56:16.075Z,61.25
2016-02-22T08:57:16.108Z,60.49
2016-02-22T08:58:16.111Z,60.49
2016-02-22T08:59:16.129Z,60.68
2016-02-22T09:00:16.148Z,60.49
2016-02-22T09:01:16.166Z,60.58
2016-02-22T09:02:16.183Z,60.49
2016-02-22T09:03:16.202Z,60.97
2016-02-22T09:04:16.236Z,60.58
2016-02-22T09:05:16.255Z,60.58
2016-02-22T09:06:16.288Z,60.3
2016-02-22T09:07:16.307Z,60.58
2016-02-22T09:08:16.325Z,60.3
2016-02-22T09:09:16.344Z,60.02
2016-02-22T09:10:16.362Z,60.24
2016-02-22T09:11:16.380Z,59.95
2016-02-22T09:12:16.399Z,60.3
2016-02-22T09:13:16.417Z,60.02
2016-02-22T09:14:16.451Z,60.11
2016-02-22T09:15:16.468Z,60.11
2016-02-22T09:16:16.487Z,60.14
2016-02-22T09:17:16.506Z,60.24
2016-02-22T09:18:16.524Z,60.33
2016-02-22T09:19:16.559Z,60.04
2016-02-22T09:20:16.576Z,60.33
2016-02-22T09:21:16.595Z,60.21
2016-02-22T09:22:16.612Z,60.14
2016-02-22T09:23:16.631Z,60.14
2016-02-22T09:24:16.650Z,59.95
2016-02-22T09:25:16.667Z,60.24
2016-02-22T09:26:16.702Z,60.14
2016-02-22T09:27:16.720Z,60.24
2016-02-22T09:28:16.739Z,60.42
2016-02-22T09:29:16.772Z,60.33
2016-02-22T09:30:16.791Z,60.24
2016-02-22T09:31:16.794Z,60.14
2016-02-22T09:32:16.827Z,60.14
2016-02-22T09:33:16.846Z,60.04
2016-02-22T09:34:16.864Z,60.24
2016-02-22T09:35:16.897Z,60.52
2016-02-22T09:36:16.916Z,60.33
2016-02-22T09:37:16.935Z,59.95
2016-02-22T09:38:16.953Z,59.76
2016-02-22T09:39:16.971Z,60.14
2016-02-22T09:40:16.990Z,60.14
2016-02-22T09:41:17.008Z,60.42
2016-02-22T09:42:17.057Z,60.24
2016-02-22T09:43:17.060Z,59.95
2016-02-22T09:44:17.078Z,59.85
2016-02-22T09:45:17.097Z,60.24
2016-02-22T09:46:17.631Z,59.76
2016-02-22T09:47:17.133Z,59.66
2016-02-22T09:48:17.167Z,60.14
2016-02-22T09:49:17.185Z,59.85
2016-02-22T09:50:17.204Z,59.76
2016-02-22T09:51:17.222Z,60.14
2016-02-22T09:52:17.241Z,59.95
2016-02-22T09:53:17.274Z,60.04
2016-02-22T09:54:17.293Z,60.14
2016-02-22T09:55:17.311Z,60.14
2016-02-22T09:56:17.344Z,59.28
2016-02-22T09:57:17.364Z,59.47
2016-02-22T09:58:17.367Z,59.38
2016-02-22T09:59:17.400Z,59.47
2016-02-22T10:00:17.419Z,59.76
2016-02-22T10:01:17.436Z,59.95
2016-02-22T10:02:17.455Z,59.85
2016-02-22T10:03:17.489Z,59.95
2016-02-22T10:04:17.507Z,60.04
2016-02-22T10:05:17.525Z,59.85
2016-02-22T10:06:17.544Z,59.76
2016-02-22T10:07:17.577Z,59.95
2016-02-22T10:08:17.627Z,59.76
2016-02-22T10:09:17.613Z,59.95
2016-02-22T10:10:17.648Z,59.95
2016-02-22T10:11:17.651Z,60.24
2016-02-22T10:12:17.669Z,60.04
2016-02-22T10:13:17.687Z,59.95
2016-02-22T10:14:18.332Z,59.76
2016-02-22T10:15:17.740Z,59.76
2016-02-22T10:16:17.757Z,59.66
2016-02-22T10:17:17.808Z,59.38
2016-02-22T10:18:17.810Z,59.47
2016-02-22T10:19:17.829Z,59.47
2016-02-22T10:20:17.862Z,59.38
2016-02-22T10:21:17.865Z,59.56
2016-02-22T10:22:17.884Z,59.47
2016-02-22T10:23:17.902Z,59.66
2016-02-22T10:24:17.936Z,59.76
2016-02-22T10:25:17.954Z,60.33
2016-02-22T10:26:17.973Z,59.95
2016-02-22T10:27:17.991Z,60.24
2016-02-22T10:28:18.025Z,60.14
2016-02-22T10:29:18.042Z,59.85
2016-02-22T10:30:18.061Z,59.85
2016-02-22T10:31:18.080Z,60.14
2016-02-22T10:32:18.098Z,60.04
2016-02-22T10:33:18.132Z,60.04
2016-02-22T10:34:18.150Z,60.14
2016-02-22T10:35:18.169Z,60.61
2016-02-22T10:36:18.186Z,60.24
2016-02-22T10:37:18.221Z,60.61
2016-02-22T10:38:18.224Z,60.61
2016-02-22T10:39:18.258Z,60.71
2016-02-22T10:40:18.276Z,61.1
2016-02-22T10:41:18.294Z,61
2016-02-22T10:42:18.312Z,61
2016-02-22T10:43:18.346Z,61.29
2016-02-22T10:44:18.365Z,61.38
2016-02-22T10:45:18.383Z,61.47
2016-02-22T10:46:18.401Z,61
2016-02-22T10:47:18.420Z,61.47
2016-02-22T10:48:18.438Z,60.9
2016-02-22T10:49:18.471Z,61.29
2016-02-22T10:50:18.490Z,61.29
2016-02-22T10:51:18.524Z,61.29
2016-02-22T10:52:18.527Z,61.19
2016-02-22T10:53:18.545Z,61.29
2016-02-22T10:54:18.579Z,61.03
2016-02-22T10:55:18.613Z,60.74
2016-02-22T10:56:18.615Z,60.84
2016-02-22T10:57:18.634Z,60.74
2016-02-22T10:58:18.653Z,60.84
2016-02-22T10:59:18.687Z,60.9
2016-02-22T11:00:18.705Z,60.84
2016-02-22T11:01:18.723Z,60.84
2016-02-22T11:02:18.741Z,60.84
2016-02-22T11:03:18.775Z,61.13
2016-02-22T11:04:18.794Z,61.13
2016-02-22T11:05:18.812Z,61.03
2016-02-22T11:06:18.830Z,61.32
2016-02-22T11:07:18.864Z,60.84
2016-02-22T11:08:18.882Z,60.46
2016-02-22T11:09:18.900Z,60.55
2016-02-22T11:10:18.966Z,60.74
2016-02-22T11:11:18.952Z,60.64
2016-02-22T11:12:18.971Z,60.74
2016-02-22T11:13:18.990Z,60.64
2016-02-22T11:14:19.368Z,60.07
2016-02-22T11:15:19.026Z,60.07
2016-02-22T11:16:19.060Z,60.17
2016-02-22T11:17:19.078Z,60.07
2016-02-22T11:18:19.097Z,60.36
2016-02-22T11:19:19.115Z,60.17
2016-02-22T11:20:19.149Z,60.36
2016-02-22T11:21:19.167Z,60.07
2016-02-22T11:22:19.185Z,59.88
2016-02-22T11:23:19.204Z,60.07
2016-02-22T11:24:19.223Z,60.17
2016-02-22T11:25:19.256Z,60.27
2016-02-22T11:26:19.353Z,60.36
2016-02-22T11:27:19.324Z,59.98
2016-02-22T11:28:19.311Z,60.27
2016-02-22T11:29:19.345Z,60.27
2016-02-22T11:30:19.363Z,59.98
2016-02-22T11:31:19.382Z,60.27
2016-02-22T11:32:19.400Z,60.36
2016-02-22T11:33:19.419Z,60.36
2016-02-22T11:34:19.452Z,60.07
2016-02-22T11:35:19.470Z,60.17
2016-02-22T11:36:19.505Z,60.36
2016-02-22T11:37:19.507Z,60.36
2016-02-22T11:38:19.525Z,60.17
2016-02-22T11:39:19.560Z,59.98
2016-02-22T11:40:19.594Z,60.36
2016-02-22T11:41:19.596Z,60.27
2016-02-22T11:42:19.630Z,60.27
2016-02-22T11:43:19.648Z,60.36
2016-02-22T11:44:19.667Z,59.98
2016-02-22T11:45:19.701Z,60.36
2016-02-22T11:46:19.719Z,60.36
2016-02-22T11:47:19.737Z,60.27
2016-02-22T11:48:19.755Z,60.07
2016-02-22T11:49:19.774Z,60.64
2016-02-22T11:50:19.793Z,60.07
2016-02-22T11:51:19.857Z,60.07
2016-02-22T11:52:19.844Z,59.98
2016-02-22T11:53:19.863Z,60.17
2016-02-22T11:54:19.881Z,59.88
2016-02-22T11:55:19.915Z,59.88
2016-02-22T11:56:19.933Z,60.17
2016-02-22T11:57:19.952Z,59.98
2016-02-22T11:58:19.970Z,59.69
2016-02-22T11:59:20.004Z,59.5
2016-02-22T12:00:20.022Z,59.88
2016-02-22T12:01:20.040Z,59.31
2016-02-22T12:02:20.059Z,59.02
2016-02-22T12:03:20.092Z,59.12
2016-02-22T12:04:20.111Z,59.59
2016-02-22T12:05:20.129Z,59.59
2016-02-22T12:06:20.148Z,59.12
2016-02-22T12:07:20.166Z,58.93
2016-02-22T12:08:20.200Z,59.22
2016-02-22T12:09:20.218Z,59.5
2016-02-22T12:10:20.253Z,59.5
2016-02-22T12:11:20.255Z,59.41
2016-02-22T12:12:20.289Z,59.69
2016-02-22T12:13:20.307Z,59.59
2016-02-22T12:14:20.324Z,58.93
2016-02-22T12:15:20.344Z,59.02
2016-02-22T12:16:20.378Z,59.12
2016-02-22T12:17:20.396Z,59.12
2016-02-22T12:18:20.414Z,58.83
2016-02-22T12:19:20.433Z,59.02
2016-02-22T12:20:20.466Z,59.12
2016-02-22T12:21:20.469Z,59.12
2016-02-22T12:22:20.518Z,59.12
2016-02-22T12:23:20.522Z,59.02
2016-02-22T12:24:20.556Z,59.02
2016-02-22T12:25:20.559Z,58.73
2016-02-22T12:26:20.592Z,58.73
2016-02-22T12:27:20.625Z,59.22
2016-02-22T12:28:20.629Z,59.22
2016-02-22T12:29:20.648Z,59.31
2016-02-22T12:30:20.681Z,59.31
2016-02-22T12:31:20.699Z,59.22
2016-02-22T12:32:20.734Z,59.12
2016-02-22T12:33:20.736Z,59.12
2016-02-22T12:34:20.770Z,59.02
2016-02-22T12:35:20.788Z,59.02
2016-02-22T12:36:20.823Z,58.64
2016-02-22T12:37:20.824Z,59.22
2016-02-22T12:38:20.844Z,59.02
2016-02-22T12:39:20.877Z,59.12
2016-02-22T12:40:20.894Z,58.93
2016-02-22T12:41:20.914Z,58.93
2016-02-22T12:42:20.948Z,58.93
2016-02-22T12:43:20.966Z,59.38
2016-02-22T12:44:20.984Z,59.31
2016-02-22T12:45:21.003Z,59.28
2016-02-22T12:46:21.021Z,59.59
2016-02-22T12:47:21.055Z,59.66
2016-02-22T12:48:21.073Z,59.98
2016-02-22T12:49:21.091Z,59.85
2016-02-22T12:50:21.126Z,60.14
2016-02-22T12:51:21.144Z,60.14
2016-02-22T12:52:21.162Z,60.33
2016-02-22T12:53:21.185Z,60.14
2016-02-22T12:54:21.204Z,59.85
2016-02-22T12:55:21.222Z,60.24